DIRECCIÓN GENERAL DE AERONÁUTICA CIVIL
DIRECCIÓN METEOROLÓGICA DE CHILE
INFORMACIÓN METAR Y TAF

FIR PUERTO MONTT

Estación: SCTC
SPECI SCTC 281611Z 36009KT 330V040 9999 4000SW SHRA BKN015 BKN025 13/12 Q1012=

TAF SCTC 281031Z 2812/2912 28006KT 9000 RA SCT008 OVC030 TX13/2818Z TN07/2911Z TEMPO 2813/2815 33010KT 4000 RA -RA BECMG 2816/2818 5000 -SHRA BKN020 BECMG 2822/2824 OVC015 TEMPO 2906/2911 4000 SHRA=

Estación: SCVD
METAR SCVD 281600Z 27003KT 230V320 9999 SCT010 BKN020 13/11 Q1011=

TAF SCVD 281032Z 2812/2824 02005KT 9999 -RA BKN016 OVC025 TN10/2812Z TX12/2818Z BECMG 2816/2818 33010KT 4000 -SHRA BECMG 2822/2824 34012KT BKN030=

Estación: SCJO
METAR SCJO 281600Z VRB02KT 9999 BKN017 BKN026 11/10 Q1011=

TAF SCJO 281043Z 2812/2824 29005KT 9999 SCT030 TN07/2812Z TX12/2818Z BECMG 2821/2823 33010KT 4000 -SHRA BKN015=

Estación: SCTE
METAR SCTE 281600Z 33005KT 9999 SCT010 11/08 Q1011 NOSIG=

TAF COR SCTE 281234Z 2813/2912 VRB02KT 0500 FG SCT005 TX12/2818Z TN09 /2910Z BECMG 2814/2816 34006KT 9999 SCT020 TEMPO 2820/2824 5000 -SHRA OVC017 BECMG 2902/2904 36012KT 4000 SHRA BKN015=

Estación: SCON
METAR SCON 281600Z VRB02KT 9999 SCT012 11/08 Q1009=

TAF SCON 281045Z 2812/2824 VRB02KT CAVOK TN07/2812Z TX11/2818Z BECMG 2812/2814 32008KT 9999 SCT030 BECMG 2818/2820 34012KT BKN025=

Estación: SCTN
METAR SCTN NIL=

TAF SCTN NIL=

Estación: SCFT
METAR SCFT 281600Z 30003KT 250V330 9999 SCT040 05/02 Q1009=

TAF SCFT NIL=

Estación: SCAP
METAR SCAP 281600Z VRB01KT 9999 BKN013 04/02 Q1014=

TAF SCAP NIL=

Estación: SCMK
METAR SCMK 281600Z 34006KT 9999 SCT020 09/07 Q1008=

TAF SCMK 281046Z 2812/2824 33008KT CAVOK TN07/2812Z TX11/2818Z BECMG 2812/2814 31008KT 9999 BKN020 OVC040 TEMPO 2816/2820 SCT040 BECMG 2820/2822 34012KT=

Estación: SCAS
METAR SCAS 182000Z 00000KT 9999 -RA SCT013 BKN026 OVC043 11/11 Q1014=

TAF SCAS NIL=

Estación: SCCY
METAR SCCY 281600Z 03003KT 9999 4000E HZ FEW033 BKN036 00/M02 Q1005=

TAF SCCY 281047Z 2812/2824 24005KT 9999 BKN010 TNM02/2812Z TX04/2818Z TEMPO 2812/2814 4000 -SHSN BECMG 2814/2816 33008KT BKN020=

Estación: SCBA
METAR SCBA 281600Z 30016KT 9999 SCT030 03/00 Q1003=

TAF SCBA 281038Z 2812/2912 24002KT 9999 BKN010 TX04/2819Z TNM03/2910Z TEMPO 2812/2814 29007KT 6000 -SN -SHSN BKN015 BECMG 2814/2816 30010KT 9999 BKN025 TEMPO 2816/2820 SCT035 BECMG 2904/2906 34005KT=

Estación: SCCC
METAR SCCC 281600Z 23003KT 9999 FEW040 SCT200 03/M00 Q1004=

TAF SCCC CECF 7687=

Estación: SCHR
METAR SCHR 281600Z 32003 9999 FEW001 SCT040 M01/M02 Q1002=

TAF AMD SCHR 281520Z 2815/2900 VRB03KT 0500 FZFG OVC001 TNM02/2815Z TX02/2819Z TEMPO 2815/2818 6000 -SHRASN BKN007 BECMG 2816/2818 31007KT SCT030=


Volver